Time;durP1;ratioP1;P1;durP2;ratioP2;P2;SDS_P1;SDS_P2;PMS_P1;PMS_P2;Temp;Humidity;BMP_temperature;BMP_pressure;BME280_temperature;BME280_humidity;BME280_pressure;Samples;Min_cycle;Max_cycle;Signal;HPM_P1;HPM_P2
2021/07/31 00:01:03;;;;;;;7.87;7.17;;;34.30;58.90;;;;;;5019739;28;20497;-29
2021/07/31 00:03:34;;;;;;;9.80;6.90;;;34.50;57.20;;;;;;5002812;28;20530;-29
2021/07/31 00:06:05;;;;;;;7.33;6.60;;;34.40;56.70;;;;;;5003751;28;20465;-28
2021/07/31 00:08:38;;;;;;;7.07;6.57;;;34.10;56.90;;;;;;5029534;28;20457;-29
2021/07/31 00:11:11;;;;;;;7.20;6.50;;;34.00;57.00;;;;;;5003111;28;20454;-29
2021/07/31 00:13:43;;;;;;;7.03;6.43;;;34.00;58.10;;;;;;5013972;28;20485;-29
2021/07/31 00:16:14;;;;;;;6.87;6.20;;;34.20;58.60;;;;;;5010797;28;20494;-29
2021/07/31 00:18:45;;;;;;;7.10;6.43;;;34.10;55.90;;;;;;5020502;28;20517;-28
2021/07/31 00:21:16;;;;;;;7.23;6.63;;;34.00;56.00;;;;;;5020938;28;21028;-28
2021/07/31 00:23:49;;;;;;;6.03;5.63;;;34.00;55.30;;;;;;5011824;28;20553;-28
2021/07/31 00:26:20;;;;;;;6.70;6.20;;;33.90;57.40;;;;;;5010351;28;20458;-27
2021/07/31 00:28:51;;;;;;;6.97;6.47;;;33.90;56.20;;;;;;5016198;28;20446;-27
2021/07/31 00:31:22;;;;;;;7.37;6.77;;;33.80;56.00;;;;;;5019020;28;20462;-28
2021/07/31 00:33:54;;;;;;;7.60;6.90;;;33.90;56.00;;;;;;5003280;28;20458;-29
2021/07/31 00:36:25;;;;;;;7.20;6.53;;;34.20;56.30;;;;;;5014566;28;20489;-29
2021/07/31 00:38:58;;;;;;;6.67;6.07;;;34.30;55.70;;;;;;5005146;28;20476;-29
2021/07/31 00:41:29;;;;;;;7.80;6.50;;;34.30;55.20;;;;;;5022562;28;20903;-29
2021/07/31 00:44:00;;;;;;;7.00;6.40;;;34.30;58.30;;;;;;5022252;28;21037;-29
2021/07/31 00:46:32;;;;;;;7.03;6.33;;;34.30;55.20;;;;;;5020616;28;20513;-29
2021/07/31 00:49:04;;;;;;;7.20;6.60;;;34.20;56.10;;;;;;5004424;28;20463;-29
2021/07/31 00:51:35;;;;;;;6.97;6.30;;;33.90;59.60;;;;;;5022113;28;20785;-29
2021/07/31 00:54:08;;;;;;;6.90;6.20;;;33.90;59.20;;;;;;5022583;28;20520;-29
2021/07/31 00:56:40;;;;;;;7.70;6.97;;;33.70;60.00;;;;;;5015861;28;21357;-29
2021/07/31 00:59:11;;;;;;;7.13;6.53;;;33.70;59.20;;;;;;5015196;28;20449;-29
2021/07/31 01:01:42;;;;;;;7.17;6.37;;;33.70;59.60;;;;;;5002314;28;20521;-29
2021/07/31 01:04:14;;;;;;;7.30;6.70;;;33.60;60.80;;;;;;5013086;28;20457;-29
2021/07/31 01:06:45;;;;;;;8.37;7.57;;;33.70;60.20;;;;;;5022342;28;20467;-29
2021/07/31 01:09:18;;;;;;;7.37;6.70;;;33.40;59.60;;;;;;5021862;28;20503;-29
2021/07/31 01:11:49;;;;;;;7.40;6.80;;;33.40;60.00;;;;;;5022494;28;20455;-29
2021/07/31 01:14:20;;;;;;;7.77;7.07;;;33.40;59.10;;;;;;5012491;28;20787;-30
2021/07/31 01:16:51;;;;;;;8.53;7.83;;;33.60;59.50;;;;;;5014059;28;20469;-28
2021/07/31 01:19:22;;;;;;;8.43;7.60;;;33.70;58.20;;;;;;5020275;28;20938;-29
2021/07/31 01:21:55;;;;;;;7.83;7.23;;;33.80;57.30;;;;;;5003862;28;20482;-29
2021/07/31 01:24:26;;;;;;;7.50;6.90;;;33.90;58.90;;;;;;5016523;28;20458;-28
2021/07/31 01:26:57;;;;;;;8.10;7.27;;;33.80;58.80;;;;;;5022096;28;20478;-29
2021/07/31 01:29:28;;;;;;;7.80;7.20;;;33.90;59.40;;;;;;5007769;28;20461;-29
2021/07/31 01:31:59;;;;;;;7.37;6.10;;;33.90;58.30;;;;;;5005526;28;20470;-29
2021/07/31 01:34:30;;;;;;;11.33;6.60;;;33.90;59.50;;;;;;5016456;28;20563;-29
2021/07/31 01:37:03;;;;;;;7.53;6.83;;;33.90;60.00;;;;;;5025561;28;20956;-29
2021/07/31 01:39:34;;;;;;;6.87;6.37;;;33.80;58.60;;;;;;5007301;28;20491;-29
2021/07/31 01:42:07;;;;;;;7.57;6.87;;;33.80;60.50;;;;;;5005867;28;20536;-29
2021/07/31 01:44:38;;;;;;;7.20;6.60;;;33.70;60.30;;;;;;5026088;28;20477;-28
2021/07/31 01:47:10;;;;;;;8.07;7.37;;;33.50;61.60;;;;;;5015818;28;20477;-28
2021/07/31 01:49:41;;;;;;;7.40;6.73;;;33.40;60.80;;;;;;5007482;28;20921;-28
2021/07/31 01:52:13;;;;;;;7.40;6.80;;;33.10;63.60;;;;;;5019537;28;20461;-28
2021/07/31 01:54:54;;;;;;;6.57;6.07;;;33.00;64.70;;;;;;5016977;28;20465;-29
2021/07/31 01:57:25;;;;;;;6.93;6.30;;;32.90;66.50;;;;;;5006745;28;20811;-28
2021/07/31 01:59:56;;;;;;;6.97;6.47;;;32.80;62.10;;;;;;5005983;28;20448;-29
2021/07/31 02:02:29;;;;;;;6.57;6.07;;;32.80;62.00;;;;;;5005131;28;20516;-29
2021/07/31 02:05:00;;;;;;;7.50;5.90;;;32.80;59.70;;;;;;5019818;28;20543;-29
2021/07/31 02:07:33;;;;;;;6.10;5.60;;;32.90;60.00;;;;;;5009304;28;20775;-29
2021/07/31 02:10:05;;;;;;;6.73;6.03;;;33.00;61.30;;;;;;5005293;28;20509;-29
2021/07/31 02:12:36;;;;;;;6.80;6.20;;;33.00;57.60;;;;;;5015043;28;20454;-29
2021/07/31 02:15:09;;;;;;;5.37;4.87;;;33.00;60.10;;;;;;5021960;28;20534;-28
2021/07/31 02:18:02;;;;;;;7.53;6.07;;;33.00;60.60;;;;;;5019995;28;20475;-29
2021/07/31 02:20:44;;;;;;;5.73;5.20;;;32.90;61.10;;;;;;5016802;28;20476;-28
2021/07/31 02:23:19;;;;;;;5.80;5.40;;;32.70;62.00;;;;;;5024675;28;20610;-28
2021/07/31 02:25:50;;;;;;;6.70;6.10;;;32.60;65.70;;;;;;5018230;28;20463;-29
2021/07/31 02:28:21;;;;;;;5.60;5.10;;;32.40;65.00;;;;;;5012791;28;20454;-29
2021/07/31 02:30:55;;;;;;;6.40;5.80;;;32.40;65.00;;;;;;5014485;28;20930;-29
2021/07/31 02:33:32;;;;;;;5.50;4.97;;;32.20;65.00;;;;;;5003802;28;20457;-29
2021/07/31 02:36:11;;;;;;;6.97;5.23;;;32.20;60.80;;;;;;5005985;28;20809;-29
2021/07/31 02:38:44;;;;;;;5.53;5.00;;;32.30;59.50;;;;;;5005437;28;20459;-29
2021/07/31 02:41:19;;;;;;;6.60;5.23;;;32.30;59.40;;;;;;5006154;28;20584;-30
2021/07/31 02:43:50;;;;;;;5.47;5.07;;;32.30;61.60;;;;;;5018845;28;20535;-28
2021/07/31 02:46:24;;;;;;;5.07;4.67;;;32.20;61.40;;;;;;5033036;28;20458;-29
2021/07/31 02:49:01;;;;;;;5.50;4.90;;;32.10;60.20;;;;;;5009214;28;20494;-29
2021/07/31 02:51:32;;;;;;;4.73;4.07;;;31.90;62.00;;;;;;5025384;28;20459;-29
2021/07/31 02:54:10;;;;;;;5.30;4.80;;;31.80;62.70;;;;;;5028133;28;20456;-29
2021/07/31 02:56:41;;;;;;;5.10;4.70;;;31.70;64.00;;;;;;5022698;28;20472;-28
2021/07/31 02:59:12;;;;;;;4.60;4.20;;;31.50;65.80;;;;;;5017431;28;20489;-29
2021/07/31 03:02:00;;;;;;;5.30;4.83;;;31.40;64.10;;;;;;5019726;28;20517;-29
2021/07/31 03:04:34;;;;;;;4.73;4.33;;;31.40;61.70;;;;;;5012457;28;20452;-29
2021/07/31 03:07:05;;;;;;;4.83;4.43;;;31.50;61.10;;;;;;5023235;28;20479;-29
2021/07/31 03:09:40;;;;;;;4.13;3.80;;;31.60;61.10;;;;;;5033086;28;20494;-28
2021/07/31 03:12:11;;;;;;;4.20;3.87;;;31.60;61.30;;;;;;5005533;28;20462;-29
2021/07/31 03:14:44;;;;;;;5.30;4.90;;;31.50;60.50;;;;;;5029592;28;20455;-29
2021/07/31 03:17:20;;;;;;;4.90;4.13;;;31.50;60.20;;;;;;5018835;28;20480;-29
2021/07/31 03:19:52;;;;;;;5.10;4.60;;;31.40;61.00;;;;;;5008190;28;20458;-29
2021/07/31 03:22:23;;;;;;;3.90;3.60;;;31.20;61.20;;;;;;5023628;28;20464;-28
2021/07/31 03:24:56;;;;;;;4.40;4.00;;;31.20;61.80;;;;;;5021378;28;20808;-28
2021/07/31 03:27:27;;;;;;;4.07;3.77;;;31.10;61.10;;;;;;5022134;28;20492;-28
2021/07/31 03:29:58;;;;;;;4.30;3.90;;;31.20;60.50;;;;;;5020653;28;20465;-28
2021/07/31 03:32:29;;;;;;;5.53;5.03;;;31.10;60.20;;;;;;5022658;28;20457;-28
2021/07/31 03:35:02;;;;;;;4.70;4.27;;;31.10;60.80;;;;;;5018898;28;20450;-28
2021/07/31 03:37:33;;;;;;;4.87;4.40;;;31.10;60.00;;;;;;5004722;28;20480;-28
2021/07/31 03:40:07;;;;;;;4.30;3.83;;;31.10;60.00;;;;;;5005800;28;20444;-28
2021/07/31 03:42:41;;;;;;;4.73;3.47;;;31.00;60.20;;;;;;5004060;28;20531;-28
2021/07/31 03:45:15;;;;;;;3.50;3.20;;;31.00;60.10;;;;;;5020138;28;20544;-28
2021/07/31 03:47:46;;;;;;;3.80;3.40;;;30.90;59.90;;;;;;5018917;28;20458;-28
2021/07/31 03:50:18;;;;;;;3.67;3.23;;;30.90;60.50;;;;;;5019961;28;20519;-28
2021/07/31 03:52:49;;;;;;;4.10;3.80;;;30.70;61.10;;;;;;5016690;28;20445;-27
2021/07/31 03:55:24;;;;;;;3.90;3.50;;;30.60;61.40;;;;;;5012876;28;20440;-28
2021/07/31 03:57:55;;;;;;;3.53;3.33;;;30.50;62.10;;;;;;5019312;28;20762;-28
2021/07/31 04:00:29;;;;;;;5.53;5.03;;;30.50;61.60;;;;;;5018199;28;20846;-28
2021/07/31 04:03:00;;;;;;;4.43;4.10;;;30.40;62.30;;;;;;5014054;28;20535;-28
2021/07/31 04:05:33;;;;;;;4.63;3.63;;;30.40;62.70;;;;;;5019387;28;20515;-28
2021/07/31 04:08:05;;;;;;;3.63;3.37;;;30.30;63.30;;;;;;5016416;28;20508;-28
2021/07/31 04:10:42;;;;;;;3.77;3.47;;;30.20;63.80;;;;;;5016764;28;20447;-28
2021/07/31 04:13:24;;;;;;;3.30;3.10;;;30.00;65.20;;;;;;5004161;28;20477;-28
2021/07/31 04:15:55;;;;;;;3.57;3.27;;;29.90;64.00;;;;;;5004053;28;20848;-28
2021/07/31 04:18:26;;;;;;;6.20;3.33;;;29.80;65.20;;;;;;5009382;28;20502;-28
2021/07/31 04:20:57;;;;;;;3.93;3.40;;;29.80;65.00;;;;;;5013802;28;20457;-27
2021/07/31 04:23:28;;;;;;;4.20;3.50;;;29.80;64.50;;;;;;5008534;28;20484;-28
2021/07/31 04:26:01;;;;;;;4.27;3.10;;;29.70;64.70;;;;;;5012935;28;20435;-28
2021/07/31 04:28:32;;;;;;;3.70;3.40;;;29.70;66.80;;;;;;5016270;28;20456;-27
2021/07/31 04:31:09;;;;;;;3.70;3.40;;;29.60;67.70;;;;;;5017193;28;20459;-27
2021/07/31 04:33:45;;;;;;;3.50;3.30;;;29.50;67.30;;;;;;5014488;28;20462;-28
2021/07/31 04:36:19;;;;;;;4.03;3.03;;;29.40;67.90;;;;;;5004260;28;20480;-28
2021/07/31 04:38:54;;;;;;;3.70;3.30;;;29.20;68.70;;;;;;5011773;28;20456;-28
2021/07/31 04:41:29;;;;;;;3.83;3.13;;;29.00;70.20;;;;;;5003624;28;20450;-28
2021/07/31 04:44:22;;;;;;;3.40;3.10;;;28.90;71.80;;;;;;5009093;28;20497;-28
2021/07/31 04:46:53;;;;;;;4.20;3.30;;;28.80;70.00;;;;;;5017357;28;20436;-28
2021/07/31 04:49:24;;;;;;;2.87;2.60;;;28.80;70.10;;;;;;5012012;28;21005;-28
2021/07/31 04:51:55;;;;;;;4.80;3.60;;;28.70;70.40;;;;;;5007093;28;20904;-28
2021/07/31 04:54:37;;;;;;;3.70;3.00;;;28.60;72.00;;;;;;5021294;28;20527;-28
2021/07/31 04:57:17;;;;;;;3.57;3.17;;;28.60;73.10;;;;;;5021428;28;20458;-28
2021/07/31 04:59:50;;;;;;;3.60;3.30;;;28.50;72.40;;;;;;5023765;28;20626;-28
2021/07/31 05:02:22;;;;;;;3.23;2.83;;;28.50;71.70;;;;;;5020669;28;20623;-28
2021/07/31 05:05:02;;;;;;;4.10;3.70;;;28.40;73.30;;;;;;5007560;28;20489;-27
2021/07/31 05:07:35;;;;;;;4.00;3.60;;;28.40;71.50;;;;;;5019024;28;20458;-28
2021/07/31 05:10:12;;;;;;;4.03;3.73;;;28.60;70.20;;;;;;5025129;28;20504;-28
2021/07/31 05:12:47;;;;;;;4.13;3.83;;;28.70;70.60;;;;;;5022983;28;20450;-27
2021/07/31 05:15:21;;;;;;;4.93;3.60;;;28.60;70.40;;;;;;5023738;28;20449;-27
2021/07/31 05:17:55;;;;;;;3.67;3.37;;;28.60;71.10;;;;;;5024975;28;20441;-28
2021/07/31 05:20:37;;;;;;;4.00;3.60;;;28.50;71.50;;;;;;5021800;28;20525;-27
2021/07/31 05:23:08;;;;;;;3.90;3.60;;;28.30;75.20;;;;;;5014498;28;20508;-28
2021/07/31 05:25:43;;;;;;;5.30;3.37;;;28.10;76.50;;;;;;5024738;28;20460;-28
2021/07/31 05:28:32;;;;;;;4.00;3.70;;;28.00;78.90;;;;;;5022540;28;20473;-28
2021/07/31 05:31:03;;;;;;;3.40;3.17;;;27.90;78.20;;;;;;5024076;28;20451;-28
2021/07/31 05:33:34;;;;;;;3.40;3.10;;;27.70;78.60;;;;;;5031980;28;20445;-27
2021/07/31 05:36:12;;;;;;;4.30;3.77;;;27.70;77.00;;;;;;5017830;28;20517;-27
2021/07/31 05:38:45;;;;;;;4.40;3.60;;;27.80;76.40;;;;;;5035822;28;20454;-28
2021/07/31 05:41:28;;;;;;;4.27;3.17;;;27.90;76.00;;;;;;5014863;28;20508;-28
2021/07/31 05:46:50;;;;;;;3.80;3.33;;;27.90;76.20;;;;;;5030972;28;20453;-28
2021/07/31 05:49:24;;;;;;;3.90;3.60;;;27.70;78.20;;;;;;5024806;28;20462;-28
2021/07/31 05:51:55;;;;;;;3.83;3.53;;;27.50;80.20;;;;;;5023093;28;20452;-28
2021/07/31 05:54:26;;;;;;;2.87;2.60;;;27.50;80.00;;;;;;5008371;28;20447;-28
2021/07/31 05:56:59;;;;;;;3.60;3.30;;;27.40;80.20;;;;;;5009939;28;20439;-28
2021/07/31 05:59:42;;;;;;;5.03;3.30;;;27.30;83.10;;;;;;5018468;28;20472;-28
2021/07/31 06:02:15;;;;;;;4.20;3.83;;;27.20;84.50;;;;;;5020186;28;20792;-28
2021/07/31 06:04:47;;;;;;;5.30;4.83;;;27.20;83.70;;;;;;5032579;28;20511;-28
2021/07/31 06:07:18;;;;;;;6.57;5.67;;;27.10;83.50;;;;;;5005744;28;20484;-27
2021/07/31 06:09:53;;;;;;;5.33;4.83;;;27.00;83.70;;;;;;5007753;28;20523;-27
2021/07/31 06:12:26;;;;;;;6.10;5.50;;;27.00;84.30;;;;;;5020048;28;20988;-27
2021/07/31 06:14:59;;;;;;;6.47;4.60;;;27.00;83.90;;;;;;5020858;28;20464;-28
2021/07/31 06:17:32;;;;;;;5.20;4.70;;;27.00;81.40;;;;;;5018056;28;20512;-28
2021/07/31 06:20:03;;;;;;;4.83;4.33;;;27.00;81.40;;;;;;5012210;28;20471;-27
2021/07/31 06:22:34;;;;;;;4.40;4.00;;;27.00;81.00;;;;;;5021791;28;20455;-28
2021/07/31 06:25:06;;;;;;;3.87;3.57;;;27.00;78.20;;;;;;5021943;28;20507;-28
2021/07/31 06:27:39;;;;;;;5.80;4.07;;;27.00;81.90;;;;;;5022785;28;20470;-28
2021/07/31 06:30:13;;;;;;;4.30;3.90;;;27.00;81.10;;;;;;5021592;28;20449;-28
2021/07/31 06:32:52;;;;;;;3.70;3.40;;;26.90;79.40;;;;;;5021784;28;20457;-28
2021/07/31 06:35:23;;;;;;;4.53;3.73;;;26.90;80.00;;;;;;5039488;28;20459;-27
2021/07/31 06:37:58;;;;;;;4.30;3.90;;;26.90;81.90;;;;;;5014724;28;20457;-29
2021/07/31 06:40:33;;;;;;;3.80;3.37;;;26.90;79.90;;;;;;5021280;28;20464;-28
2021/07/31 06:43:09;;;;;;;3.50;3.20;;;26.90;81.00;;;;;;5020160;28;20453;-28
2021/07/31 06:45:43;;;;;;;3.80;3.50;;;26.80;82.90;;;;;;5017147;28;20488;-27
2021/07/31 06:48:14;;;;;;;3.73;3.43;;;26.80;80.40;;;;;;5022903;28;20448;-28
2021/07/31 06:50:45;;;;;;;3.43;3.13;;;27.00;81.10;;;;;;5023996;28;20449;-28
2021/07/31 06:53:16;;;;;;;4.00;3.07;;;27.00;79.40;;;;;;5017029;28;20453;-28
2021/07/31 06:55:49;;;;;;;2.77;2.47;;;27.00;77.70;;;;;;5020812;28;20453;-28
2021/07/31 06:58:28;;;;;;;3.00;2.70;;;27.00;77.60;;;;;;5021306;28;20453;-27
2021/07/31 07:01:04;;;;;;;3.17;2.97;;;27.20;77.40;;;;;;5017065;28;20452;-28
2021/07/31 07:03:35;;;;;;;2.90;2.70;;;27.20;76.20;;;;;;5008048;28;20862;-28
2021/07/31 07:06:07;;;;;;;4.00;3.30;;;27.10;79.00;;;;;;5004423;28;20842;-28
2021/07/31 07:08:42;;;;;;;3.20;2.90;;;27.10;80.50;;;;;;5014373;28;20462;-28
2021/07/31 07:11:17;;;;;;;2.97;2.77;;;27.00;77.90;;;;;;5022659;28;20452;-28
2021/07/31 07:13:51;;;;;;;3.20;2.50;;;27.00;81.40;;;;;;5021328;28;20468;-27
2021/07/31 07:16:26;;;;;;;3.53;3.23;;;26.90;83.00;;;;;;5021979;28;20496;-28
2021/07/31 07:18:57;;;;;;;2.97;2.77;;;26.70;84.10;;;;;;5004363;28;20482;-27
2021/07/31 07:21:28;;;;;;;3.77;2.80;;;26.70;84.40;;;;;;5004067;28;20451;-27
2021/07/31 07:24:01;;;;;;;4.40;3.10;;;26.60;80.60;;;;;;5020604;28;20480;-27
2021/07/31 07:26:32;;;;;;;3.40;3.10;;;26.60;83.60;;;;;;5010478;28;20541;-27
2021/07/31 07:29:03;;;;;;;3.40;2.80;;;26.50;85.80;;;;;;5021329;28;20472;-27
2021/07/31 07:31:36;;;;;;;3.00;2.67;;;26.40;85.00;;;;;;5021918;28;21117;-27
2021/07/31 07:34:07;;;;;;;3.50;2.67;;;26.50;82.80;;;;;;5024446;28;20519;-27
2021/07/31 07:36:41;;;;;;;3.40;2.93;;;26.60;80.90;;;;;;5023177;28;20949;-27
2021/07/31 07:39:15;;;;;;;2.80;2.60;;;26.50;82.20;;;;;;5027966;28;20472;-27
2021/07/31 07:41:49;;;;;;;3.60;2.97;;;26.40;81.50;;;;;;5006909;28;20448;-28
2021/07/31 07:44:20;;;;;;;3.17;2.77;;;26.40;80.30;;;;;;5011426;28;20475;-28
2021/07/31 07:47:00;;;;;;;5.17;3.50;;;26.40;80.30;;;;;;5019552;28;20956;-28
2021/07/31 07:49:34;;;;;;;2.83;2.60;;;26.40;80.50;;;;;;5020044;28;20455;-28
2021/07/31 07:52:06;;;;;;;3.23;2.60;;;26.30;81.00;;;;;;5021757;28;20483;-28
2021/07/31 07:54:40;;;;;;;3.00;2.70;;;26.30;78.70;;;;;;5022880;28;20938;-28
2021/07/31 07:57:11;;;;;;;3.37;2.63;;;26.40;78.60;;;;;;5022747;28;20455;-28
2021/07/31 07:59:44;;;;;;;3.80;2.97;;;26.40;79.30;;;;;;5007267;28;20447;-28
2021/07/31 08:02:17;;;;;;;3.57;2.83;;;26.40;81.70;;;;;;5008469;28;20452;-28
2021/07/31 08:04:48;;;;;;;3.10;2.90;;;26.40;79.80;;;;;;5022823;28;20465;-28
2021/07/31 08:07:19;;;;;;;3.50;3.20;;;26.50;79.10;;;;;;5018947;28;20460;-28
2021/07/31 08:09:52;;;;;;;3.10;2.60;;;26.50;79.30;;;;;;5019623;28;20462;-28
2021/07/31 08:12:39;;;;;;;2.87;2.67;;;26.60;79.90;;;;;;5009850;28;21028;-28
2021/07/31 08:15:11;;;;;;;3.90;3.50;;;26.60;79.10;;;;;;5010069;28;20529;-28
2021/07/31 08:17:49;;;;;;;4.27;2.90;;;26.60;77.20;;;;;;5006874;28;20471;-27
2021/07/31 08:20:23;;;;;;;3.03;2.77;;;26.40;80.60;;;;;;5018900;28;20485;-27
2021/07/31 08:22:56;;;;;;;3.23;2.93;;;26.30;81.60;;;;;;5020644;28;20455;-28
2021/07/31 08:25:27;;;;;;;3.60;2.83;;;26.30;80.90;;;;;;5007945;28;20484;-29
2021/07/31 08:27:59;;;;;;;3.27;2.97;;;26.30;79.70;;;;;;5020329;28;20465;-28
2021/07/31 08:30:32;;;;;;;2.97;2.70;;;26.20;81.00;;;;;;5020980;28;20508;-27
2021/07/31 08:33:23;;;;;;;4.83;2.70;;;26.10;81.30;;;;;;5023777;28;20526;-28
2021/07/31 08:36:00;;;;;;;2.83;2.63;;;26.10;81.20;;;;;;5036697;28;20552;-27
2021/07/31 08:38:31;;;;;;;2.90;2.70;;;25.90;83.50;;;;;;5007248;28;20490;-27
2021/07/31 08:41:03;;;;;;;3.30;3.00;;;25.90;83.30;;;;;;5007530;28;20451;-27
2021/07/31 08:43:35;;;;;;;3.00;2.80;;;25.80;83.90;;;;;;5007346;28;20462;-27
2021/07/31 08:46:10;;;;;;;4.63;3.23;;;25.70;81.90;;;;;;5006706;28;20487;-27
2021/07/31 08:48:44;;;;;;;3.57;3.27;;;25.70;82.90;;;;;;5019703;28;20563;-27
2021/07/31 08:51:20;;;;;;;3.53;2.93;;;25.60;84.10;;;;;;5013942;28;20450;-27
2021/07/31 08:53:51;;;;;;;4.17;3.00;;;25.60;86.20;;;;;;5026280;28;20450;-27
2021/07/31 08:56:33;;;;;;;3.70;2.70;;;25.60;82.20;;;;;;5021388;28;20458;-28
2021/07/31 08:59:05;;;;;;;3.40;3.07;;;25.70;82.80;;;;;;5023027;28;20555;-28
2021/07/31 09:01:36;;;;;;;5.10;3.13;;;25.80;81.40;;;;;;5020194;28;20451;-28
2021/07/31 09:04:17;;;;;;;2.90;2.70;;;25.70;82.00;;;;;;5025727;28;20441;-28
2021/07/31 09:06:48;;;;;;;3.23;2.93;;;25.70;81.90;;;;;;5026310;28;20501;-28
2021/07/31 09:09:26;;;;;;;3.60;3.00;;;25.60;82.50;;;;;;5025888;28;20453;-28
2021/07/31 09:12:08;;;;;;;4.30;3.60;;;25.60;83.50;;;;;;5024066;28;20473;-28
2021/07/31 09:14:47;;;;;;;4.03;3.23;;;25.40;85.50;;;;;;5025855;28;20481;-28
2021/07/31 09:17:28;;;;;;;3.90;2.70;;;25.40;87.40;;;;;;5024659;28;20508;-28
2021/07/31 09:20:01;;;;;;;3.33;2.47;;;25.30;86.60;;;;;;5022345;28;20456;-28
2021/07/31 09:22:32;;;;;;;3.53;3.23;;;25.30;85.10;;;;;;5019333;28;20450;-28
2021/07/31 09:25:16;;;;;;;4.80;3.30;;;25.20;86.30;;;;;;5013808;28;20447;-28
2021/07/31 09:27:47;;;;;;;3.40;3.10;;;25.10;88.70;;;;;;5015196;28;20489;-28
2021/07/31 09:30:18;;;;;;;3.97;3.50;;;25.10;88.50;;;;;;5019007;28;20505;-28
2021/07/31 09:33:04;;;;;;;3.60;2.77;;;25.10;86.00;;;;;;5022841;28;20508;-28
2021/07/31 09:35:37;;;;;;;3.87;3.37;;;25.10;86.50;;;;;;5018917;28;20463;-28
2021/07/31 09:38:08;;;;;;;3.67;3.37;;;25.10;86.40;;;;;;5008637;28;20511;-28
2021/07/31 09:40:39;;;;;;;3.50;3.20;;;25.20;84.90;;;;;;5006262;28;20450;-28
2021/07/31 09:43:15;;;;;;;3.70;3.40;;;25.20;84.70;;;;;;5021208;28;20449;-27
2021/07/31 09:45:48;;;;;;;3.03;2.73;;;25.20;83.70;;;;;;5024872;28;20478;-27
2021/07/31 09:48:22;;;;;;;3.40;3.10;;;25.20;83.20;;;;;;5021312;28;20586;-28
2021/07/31 09:50:55;;;;;;;3.07;2.77;;;25.10;82.20;;;;;;5023311;28;20454;-28
2021/07/31 09:53:27;;;;;;;4.67;3.27;;;25.10;84.00;;;;;;5022649;28;20454;-28
2021/07/31 09:56:00;;;;;;;4.27;3.37;;;25.10;82.80;;;;;;5024111;28;20458;-28
2021/07/31 09:58:34;;;;;;;3.50;3.20;;;25.10;81.90;;;;;;5024836;28;20930;-28
2021/07/31 10:01:05;;;;;;;2.93;2.57;;;25.00;82.40;;;;;;5021864;28;20505;-28
2021/07/31 10:03:40;;;;;;;3.00;2.70;;;25.00;81.80;;;;;;5007967;28;20494;-28
2021/07/31 10:06:15;;;;;;;3.43;3.13;;;25.00;81.30;;;;;;5025120;28;20485;-28
2021/07/31 10:08:46;;;;;;;3.60;2.90;;;25.00;82.10;;;;;;5024844;28;20602;-28
2021/07/31 10:11:18;;;;;;;3.20;2.87;;;24.80;82.70;;;;;;5011071;28;20502;-28
2021/07/31 10:13:49;;;;;;;3.30;3.00;;;24.80;81.80;;;;;;5024294;28;20451;-28
2021/07/31 10:16:20;;;;;;;3.30;2.83;;;24.70;84.20;;;;;;5022140;28;20461;-28
2021/07/31 10:18:59;;;;;;;3.57;3.27;;;24.70;81.70;;;;;;5023458;28;20457;-28
2021/07/31 10:21:35;;;;;;;3.03;2.83;;;24.70;84.20;;;;;;5020926;28;20457;-28
2021/07/31 10:24:08;;;;;;;3.10;2.80;;;24.60;83.90;;;;;;5017334;28;20450;-28
2021/07/31 10:26:39;;;;;;;2.60;2.40;;;24.50;82.70;;;;;;5021927;28;20482;-28
2021/07/31 10:29:46;;;;;;;5.43;3.33;;;24.60;83.40;;;;;;5023833;28;20471;-28
2021/07/31 10:32:48;;;;;;;3.50;3.20;;;24.60;83.70;;;;;;5027540;28;20464;-28
2021/07/31 10:35:30;;;;;;;2.87;2.60;;;24.50;83.00;;;;;;5008520;28;20918;-28
2021/07/31 10:38:04;;;;;;;3.17;2.57;;;24.50;81.90;;;;;;5023715;28;20458;-28
2021/07/31 10:40:50;;;;;;;3.10;2.80;;;24.50;80.60;;;;;;5012390;28;20458;-28
2021/07/31 10:43:23;;;;;;;2.60;2.40;;;24.40;81.40;;;;;;5016281;28;21037;-28
2021/07/31 10:46:25;;;;;;;3.40;3.07;;;24.40;83.90;;;;;;5024322;28;20520;-29
2021/07/31 10:48:58;;;;;;;3.07;2.77;;;24.40;83.60;;;;;;5024117;28;20454;-28
2021/07/31 10:51:44;;;;;;;3.10;2.47;;;24.30;82.90;;;;;;5019888;28;20458;-28
2021/07/31 10:54:17;;;;;;;3.60;2.80;;;24.30;83.20;;;;;;5013625;28;20462;-28
2021/07/31 10:56:56;;;;;;;3.63;2.93;;;24.30;84.60;;;;;;5015965;28;20505;-27
2021/07/31 10:59:27;;;;;;;2.90;2.70;;;24.30;82.80;;;;;;5022399;28;20973;-27
2021/07/31 11:02:37;;;;;;;4.73;3.00;;;24.30;85.40;;;;;;5016854;28;20447;-28
2021/07/31 11:05:09;;;;;;;2.77;2.57;;;24.20;85.40;;;;;;5014685;28;20524;-27
2021/07/31 11:08:08;;;;;;;3.20;2.90;;;24.20;86.00;;;;;;5021004;28;20501;-28
2021/07/31 11:10:43;;;;;;;3.33;2.73;;;24.20;86.30;;;;;;5012100;28;20463;-28
2021/07/31 11:13:35;;;;;;;3.27;3.07;;;24.10;86.60;;;;;;5009202;28;20520;-28
2021/07/31 11:16:22;;;;;;;3.13;2.83;;;24.10;86.40;;;;;;5004938;28;20475;-28
2021/07/31 11:19:01;;;;;;;3.13;2.83;;;24.20;85.20;;;;;;5018256;28;20454;-28
2021/07/31 11:21:34;;;;;;;2.90;2.60;;;24.20;84.80;;;;;;5023459;28;20524;-28
2021/07/31 11:24:06;;;;;;;3.30;2.87;;;24.10;84.80;;;;;;5008891;28;20450;-28
2021/07/31 11:26:45;;;;;;;2.80;2.60;;;24.10;85.40;;;;;;5023610;28;20450;-28
2021/07/31 11:29:24;;;;;;;4.00;2.70;;;24.00;87.20;;;;;;5022629;28;20454;-28
2021/07/31 11:32:11;;;;;;;2.80;2.50;;;24.00;87.00;;;;;;5023792;28;20455;-28
2021/07/31 11:34:44;;;;;;;3.10;2.80;;;24.00;85.90;;;;;;5033649;28;20462;-28
2021/07/31 11:37:17;;;;;;;2.97;2.77;;;23.90;86.90;;;;;;5023045;28;20478;-28
2021/07/31 11:39:50;;;;;;;3.50;2.97;;;23.90;88.10;;;;;;5006210;28;20482;-28
2021/07/31 11:42:31;;;;;;;2.50;2.30;;;23.80;87.60;;;;;;5020755;28;20501;-28
2021/07/31 11:45:11;;;;;;;2.90;2.70;;;23.80;88.70;;;;;;5020657;28;20473;-28
2021/07/31 11:47:42;;;;;;;3.83;3.10;;;23.80;90.60;;;;;;5009994;28;20571;-28
2021/07/31 11:50:15;;;;;;;2.60;2.40;;;23.80;90.30;;;;;;5022644;28;20454;-28
2021/07/31 11:52:46;;;;;;;3.10;2.80;;;23.80;91.20;;;;;;5023281;28;20462;-28
2021/07/31 11:55:25;;;;;;;3.03;2.73;;;23.70;90.30;;;;;;5015912;28;20458;-28
2021/07/31 11:58:01;;;;;;;3.50;2.87;;;23.80;90.00;;;;;;5020589;28;20485;-28
2021/07/31 12:00:34;;;;;;;2.97;2.50;;;23.80;90.30;;;;;;5016954;28;20457;-29
2021/07/31 12:03:43;;;;;;;3.13;2.80;;;23.80;90.40;;;;;;5020190;28;20465;-28
2021/07/31 12:06:42;;;;;;;3.00;2.70;;;23.70;90.10;;;;;;5021825;28;20504;-29
2021/07/31 12:09:24;;;;;;;3.90;2.80;;;23.70;90.70;;;;;;5014245;28;20461;-28
2021/07/31 12:11:58;;;;;;;2.80;2.60;;;23.80;89.90;;;;;;5020839;28;20770;-29
2021/07/31 12:14:45;;;;;;;3.07;2.87;;;23.80;89.80;;;;;;5023408;28;20442;-29
2021/07/31 12:17:17;;;;;;;2.50;2.30;;;23.80;88.30;;;;;;5020914;28;20811;-29
2021/07/31 12:19:53;;;;;;;3.67;3.07;;;23.80;87.50;;;;;;5019430;28;20457;-29
2021/07/31 12:22:25;;;;;;;3.47;2.60;;;23.70;88.10;;;;;;5022242;28;20417;-29
2021/07/31 12:25:11;;;;;;;3.73;2.70;;;23.70;88.30;;;;;;5014409;28;20516;-28
2021/07/31 12:28:02;;;;;;;2.90;2.33;;;23.60;89.30;;;;;;5021898;28;20536;-28
2021/07/31 12:30:42;;;;;;;3.03;2.20;;;23.60;88.40;;;;;;5022858;28;20458;-29
2021/07/31 12:33:20;;;;;;;3.70;2.37;;;23.60;90.00;;;;;;5019056;28;20449;-29
2021/07/31 12:36:01;;;;;;;2.70;2.50;;;23.70;88.20;;;;;;5019599;28;20424;-29
2021/07/31 12:38:33;;;;;;;2.43;2.10;;;23.70;87.80;;;;;;5013572;28;20450;-29
2021/07/31 12:41:12;;;;;;;2.83;2.63;;;23.60;88.80;;;;;;5018861;28;20509;-29
2021/07/31 12:43:44;;;;;;;2.47;2.27;;;23.50;89.50;;;;;;5009452;28;20505;-29
2021/07/31 12:46:17;;;;;;;3.80;2.17;;;23.60;88.10;;;;;;5020611;28;20442;-28
2021/07/31 12:48:50;;;;;;;2.50;2.23;;;23.70;87.40;;;;;;5020034;28;20489;-28
2021/07/31 12:51:23;;;;;;;2.13;2.03;;;23.60;87.20;;;;;;5003147;28;20486;-28
2021/07/31 12:53:54;;;;;;;2.70;2.50;;;23.50;88.10;;;;;;5009166;28;20454;-28
2021/07/31 12:56:27;;;;;;;2.23;2.03;;;23.40;88.80;;;;;;5021402;28;20567;-28
2021/07/31 12:59:01;;;;;;;2.37;2.17;;;23.40;88.60;;;;;;5019460;28;20481;-28
2021/07/31 13:01:36;;;;;;;2.37;2.10;;;23.20;89.40;;;;;;5021791;28;20446;-28
2021/07/31 13:04:07;;;;;;;2.43;2.23;;;23.20;90.20;;;;;;5006913;28;20497;-28
2021/07/31 13:06:38;;;;;;;2.60;2.40;;;23.20;91.20;;;;;;5006500;28;20458;-29
2021/07/31 13:09:09;;;;;;;3.60;2.60;;;23.10;90.60;;;;;;5021543;28;20820;-28
2021/07/31 13:11:59;;;;;;;3.40;2.63;;;23.10;91.00;;;;;;5022376;28;20432;-29
2021/07/31 13:14:39;;;;;;;2.93;2.70;;;23.10;91.80;;;;;;5021971;28;20463;-28
2021/07/31 13:17:15;;;;;;;2.60;2.30;;;23.10;91.50;;;;;;5013482;28;20446;-28
2021/07/31 13:19:53;;;;;;;3.30;2.63;;;23.00;92.40;;;;;;5019587;28;20837;-29
2021/07/31 13:22:24;;;;;;;2.60;2.20;;;23.00;92.80;;;;;;5025602;28;20442;-28
2021/07/31 13:24:58;;;;;;;2.60;2.40;;;23.00;92.10;;;;;;5020335;28;20421;-28
2021/07/31 13:27:29;;;;;;;5.93;2.67;;;23.00;91.80;;;;;;5015318;28;20497;-28
2021/07/31 13:30:13;;;;;;;2.30;2.10;;;23.00;92.90;;;;;;5025808;28;20561;-27